sensor_id;sensor_type;location;lat;lon;timestamp;temperature;humidity
21540;DHT22;10931;52.164;5.518;2022-10-26T00:01:12;21.20;72.90
21540;DHT22;10931;52.164;5.518;2022-10-26T00:03:46;21.20;72.90
21540;DHT22;10931;52.164;5.518;2022-10-26T00:06:16;21.20;72.90
21540;DHT22;10931;52.164;5.518;2022-10-26T00:08:48;21.20;72.90
21540;DHT22;10931;52.164;5.518;2022-10-26T00:11:24;21.20;72.90
21540;DHT22;10931;52.164;5.518;2022-10-26T00:14:16;21.20;72.90
21540;DHT22;10931;52.164;5.518;2022-10-26T00:16:47;21.20;72.90
21540;DHT22;10931;52.164;5.518;2022-10-26T00:19:21;21.10;72.80
21540;DHT22;10931;52.164;5.518;2022-10-26T00:24:46;21.10;72.80
21540;DHT22;10931;52.164;5.518;2022-10-26T00:27:14;21.10;72.80
21540;DHT22;10931;52.164;5.518;2022-10-26T00:29:42;21.10;72.80
21540;DHT22;10931;52.164;5.518;2022-10-26T00:32:23;21.10;72.80
21540;DHT22;10931;52.164;5.518;2022-10-26T00:35:05;21.10;72.80
21540;DHT22;10931;52.164;5.518;2022-10-26T00:37:47;21.10;72.80
21540;DHT22;10931;52.164;5.518;2022-10-26T00:40:19;21.10;72.80
21540;DHT22;10931;52.164;5.518;2022-10-26T00:43:35;21.10;72.80
21540;DHT22;10931;52.164;5.518;2022-10-26T00:46:33;21.10;72.80
21540;DHT22;10931;52.164;5.518;2022-10-26T00:49:15;21.10;72.80
21540;DHT22;10931;52.164;5.518;2022-10-26T00:51:54;21.10;72.80
21540;DHT22;10931;52.164;5.518;2022-10-26T00:54:45;21.00;72.80
21540;DHT22;10931;52.164;5.518;2022-10-26T01:00:37;21.00;72.80
21540;DHT22;10931;52.164;5.518;2022-10-26T01:03:44;21.00;72.70
21540;DHT22;10931;52.164;5.518;2022-10-26T01:06:17;21.00;72.70
21540;DHT22;10931;52.164;5.518;2022-10-26T01:08:43;21.00;72.80
21540;DHT22;10931;52.164;5.518;2022-10-26T01:11:11;21.00;72.70
21540;DHT22;10931;52.164;5.518;2022-10-26T01:14:15;21.00;72.80
21540;DHT22;10931;52.164;5.518;2022-10-26T01:23:01;21.00;72.70
21540;DHT22;10931;52.164;5.518;2022-10-26T01:31:11;20.90;72.60
21540;DHT22;10931;52.164;5.518;2022-10-26T01:34:20;20.90;72.60
21540;DHT22;10931;52.164;5.518;2022-10-26T01:40:02;20.90;72.60
21540;DHT22;10931;52.164;5.518;2022-10-26T01:42:54;20.90;72.60
21540;DHT22;10931;52.164;5.518;2022-10-26T01:45:25;20.90;72.60
21540;DHT22;10931;52.164;5.518;2022-10-26T01:47:57;20.90;72.60
21540;DHT22;10931;52.164;5.518;2022-10-26T01:50:34;20.90;72.60
21540;DHT22;10931;52.164;5.518;2022-10-26T01:53:05;20.90;72.60
21540;DHT22;10931;52.164;5.518;2022-10-26T01:55:54;20.90;72.60
21540;DHT22;10931;52.164;5.518;2022-10-26T02:04:41;20.90;72.60
21540;DHT22;10931;52.164;5.518;2022-10-26T02:15:43;20.80;72.60
21540;DHT22;10931;52.164;5.518;2022-10-26T02:18:52;20.80;72.60
21540;DHT22;10931;52.164;5.518;2022-10-26T02:21:54;20.80;72.60
21540;DHT22;10931;52.164;5.518;2022-10-26T02:24:22;20.80;72.50
21540;DHT22;10931;52.164;5.518;2022-10-26T02:26:53;20.80;72.50
21540;DHT22;10931;52.164;5.518;2022-10-26T02:29:23;20.70;72.50
21540;DHT22;10931;52.164;5.518;2022-10-26T02:32:03;20.80;72.50
21540;DHT22;10931;52.164;5.518;2022-10-26T02:34:34;20.80;72.50
21540;DHT22;10931;52.164;5.518;2022-10-26T02:37:07;20.80;72.50
21540;DHT22;10931;52.164;5.518;2022-10-26T02:39:37;20.80;72.60
21540;DHT22;10931;52.164;5.518;2022-10-26T02:42:17;20.70;72.50
21540;DHT22;10931;52.164;5.518;2022-10-26T02:44:53;20.80;72.60
21540;DHT22;10931;52.164;5.518;2022-10-26T02:47:20;20.80;72.50
21540;DHT22;10931;52.164;5.518;2022-10-26T02:49:56;20.70;72.50
21540;DHT22;10931;52.164;5.518;2022-10-26T02:52:28;20.70;72.50
21540;DHT22;10931;52.164;5.518;2022-10-26T02:55:32;20.70;72.50
21540;DHT22;10931;52.164;5.518;2022-10-26T02:58:04;20.70;72.50
21540;DHT22;10931;52.164;5.518;2022-10-26T03:00:50;20.70;72.50
21540;DHT22;10931;52.164;5.518;2022-10-26T03:03:23;20.70;72.50
21540;DHT22;10931;52.164;5.518;2022-10-26T03:06:02;20.70;72.50
21540;DHT22;10931;52.164;5.518;2022-10-26T03:08:40;20.70;73.20
21540;DHT22;10931;52.164;5.518;2022-10-26T03:11:06;20.70;72.50
21540;DHT22;10931;52.164;5.518;2022-10-26T03:13:32;20.70;72.50
21540;DHT22;10931;52.164;5.518;2022-10-26T03:16:07;20.70;72.40
21540;DHT22;10931;52.164;5.518;2022-10-26T03:18:35;20.70;72.50
21540;DHT22;10931;52.164;5.518;2022-10-26T03:21:18;20.70;72.50
21540;DHT22;10931;52.164;5.518;2022-10-26T03:23:48;20.70;72.50
21540;DHT22;10931;52.164;5.518;2022-10-26T03:26:22;20.60;72.40
21540;DHT22;10931;52.164;5.518;2022-10-26T03:28:51;20.70;72.50
21540;DHT22;10931;52.164;5.518;2022-10-26T03:31:23;20.60;72.30
21540;DHT22;10931;52.164;5.518;2022-10-26T03:33:55;20.60;72.40
21540;DHT22;10931;52.164;5.518;2022-10-26T03:36:26;20.60;72.40
21540;DHT22;10931;52.164;5.518;2022-10-26T03:38:51;20.60;72.30
21540;DHT22;10931;52.164;5.518;2022-10-26T03:41:20;20.60;72.40
21540;DHT22;10931;52.164;5.518;2022-10-26T03:43:50;20.60;72.30
21540;DHT22;10931;52.164;5.518;2022-10-26T03:46:16;20.60;72.30
21540;DHT22;10931;52.164;5.518;2022-10-26T03:48:49;20.60;72.30
21540;DHT22;10931;52.164;5.518;2022-10-26T03:51:17;20.60;72.40
21540;DHT22;10931;52.164;5.518;2022-10-26T03:53:45;20.60;72.40
21540;DHT22;10931;52.164;5.518;2022-10-26T03:56:11;20.60;72.30
21540;DHT22;10931;52.164;5.518;2022-10-26T03:58:39;20.50;72.30
21540;DHT22;10931;52.164;5.518;2022-10-26T04:01:11;20.60;72.30
21540;DHT22;10931;52.164;5.518;2022-10-26T04:03:49;20.60;72.30
21540;DHT22;10931;52.164;5.518;2022-10-26T04:06:33;20.60;72.40
21540;DHT22;10931;52.164;5.518;2022-10-26T04:09:02;20.50;72.30
21540;DHT22;10931;52.164;5.518;2022-10-26T04:11:28;20.50;72.30
21540;DHT22;10931;52.164;5.518;2022-10-26T04:14:25;20.50;72.30
21540;DHT22;10931;52.164;5.518;2022-10-26T04:16:53;20.50;72.30
21540;DHT22;10931;52.164;5.518;2022-10-26T04:19:29;20.50;72.30
21540;DHT22;10931;52.164;5.518;2022-10-26T04:21:55;20.50;72.30
21540;DHT22;10931;52.164;5.518;2022-10-26T04:24:20;20.50;72.30
21540;DHT22;10931;52.164;5.518;2022-10-26T04:26:46;20.50;72.30
21540;DHT22;10931;52.164;5.518;2022-10-26T04:29:18;20.50;72.30
21540;DHT22;10931;52.164;5.518;2022-10-26T04:31:49;20.50;72.30
21540;DHT22;10931;52.164;5.518;2022-10-26T04:34:18;20.50;72.30
21540;DHT22;10931;52.164;5.518;2022-10-26T04:36:43;20.50;72.30
21540;DHT22;10931;52.164;5.518;2022-10-26T04:39:18;20.50;72.30
21540;DHT22;10931;52.164;5.518;2022-10-26T04:41:44;20.50;72.30
21540;DHT22;10931;52.164;5.518;2022-10-26T04:44:10;20.50;72.30
21540;DHT22;10931;52.164;5.518;2022-10-26T04:46:45;20.50;72.30
21540;DHT22;10931;52.164;5.518;2022-10-26T04:49:29;20.50;72.30
21540;DHT22;10931;52.164;5.518;2022-10-26T04:52:03;20.40;72.20
21540;DHT22;10931;52.164;5.518;2022-10-26T04:54:34;20.40;72.30
21540;DHT22;10931;52.164;5.518;2022-10-26T04:57:17;20.40;72.20
21540;DHT22;10931;52.164;5.518;2022-10-26T04:59:45;20.40;72.20
21540;DHT22;10931;52.164;5.518;2022-10-26T05:02:41;20.40;72.20
21540;DHT22;10931;52.164;5.518;2022-10-26T05:05:23;20.40;72.20
21540;DHT22;10931;52.164;5.518;2022-10-26T05:11:02;20.40;72.20
21540;DHT22;10931;52.164;5.518;2022-10-26T05:13:32;20.40;72.20
21540;DHT22;10931;52.164;5.518;2022-10-26T05:16:36;20.40;72.20
21540;DHT22;10931;52.164;5.518;2022-10-26T05:19:22;20.40;72.20
21540;DHT22;10931;52.164;5.518;2022-10-26T05:22:06;20.40;72.20
21540;DHT22;10931;52.164;5.518;2022-10-26T05:24:53;20.40;72.20
21540;DHT22;10931;52.164;5.518;2022-10-26T05:30:50;20.40;72.20
21540;DHT22;10931;52.164;5.518;2022-10-26T05:33:39;20.40;72.20
21540;DHT22;10931;52.164;5.518;2022-10-26T05:41:23;20.40;72.30
21540;DHT22;10931;52.164;5.518;2022-10-26T05:44:15;20.30;72.10
21540;DHT22;10931;52.164;5.518;2022-10-26T05:46:50;20.30;72.20
21540;DHT22;10931;52.164;5.518;2022-10-26T05:52:49;20.30;72.10
21540;DHT22;10931;52.164;5.518;2022-10-26T05:55:39;20.30;72.20
21540;DHT22;10931;52.164;5.518;2022-10-26T05:58:14;20.30;72.10
21540;DHT22;10931;52.164;5.518;2022-10-26T06:09:13;20.30;72.10
21540;DHT22;10931;52.164;5.518;2022-10-26T06:11:39;20.30;72.30
21540;DHT22;10931;52.164;5.518;2022-10-26T06:14:12;20.30;72.20
21540;DHT22;10931;52.164;5.518;2022-10-26T06:19:17;20.30;72.20
21540;DHT22;10931;52.164;5.518;2022-10-26T06:25:03;20.20;72.10
21540;DHT22;10931;52.164;5.518;2022-10-26T06:30:40;20.20;72.10
21540;DHT22;10931;52.164;5.518;2022-10-26T06:33:11;20.20;72.10
21540;DHT22;10931;52.164;5.518;2022-10-26T06:38:53;20.20;72.10
21540;DHT22;10931;52.164;5.518;2022-10-26T06:41:27;20.20;72.10
21540;DHT22;10931;52.164;5.518;2022-10-26T06:43:57;20.20;72.10
21540;DHT22;10931;52.164;5.518;2022-10-26T06:46:44;20.20;72.10
21540;DHT22;10931;52.164;5.518;2022-10-26T06:54:54;20.20;72.10
21540;DHT22;10931;52.164;5.518;2022-10-26T06:57:54;20.20;72.10
21540;DHT22;10931;52.164;5.518;2022-10-26T07:00:26;20.20;72.20
21540;DHT22;10931;52.164;5.518;2022-10-26T07:02:51;20.20;72.10
21540;DHT22;10931;52.164;5.518;2022-10-26T07:05:20;20.20;72.10
21540;DHT22;10931;52.164;5.518;2022-10-26T07:07:46;20.20;72.10
21540;DHT22;10931;52.164;5.518;2022-10-26T07:10:13;20.20;72.10
21540;DHT22;10931;52.164;5.518;2022-10-26T07:12:42;20.20;72.10
21540;DHT22;10931;52.164;5.518;2022-10-26T07:15:20;20.10;72.10
21540;DHT22;10931;52.164;5.518;2022-10-26T07:17:48;20.20;72.10
21540;DHT22;10931;52.164;5.518;2022-10-26T07:20:40;20.20;72.10
21540;DHT22;10931;52.164;5.518;2022-10-26T07:23:41;20.10;72.10
21540;DHT22;10931;52.164;5.518;2022-10-26T07:26:18;20.10;72.10
21540;DHT22;10931;52.164;5.518;2022-10-26T07:29:00;20.10;72.10
21540;DHT22;10931;52.164;5.518;2022-10-26T07:37:28;20.10;72.10
21540;DHT22;10931;52.164;5.518;2022-10-26T07:39:56;20.10;72.10
21540;DHT22;10931;52.164;5.518;2022-10-26T07:42:22;20.10;72.10
21540;DHT22;10931;52.164;5.518;2022-10-26T07:44:50;20.10;72.10
21540;DHT22;10931;52.164;5.518;2022-10-26T07:47:19;20.10;72.10
21540;DHT22;10931;52.164;5.518;2022-10-26T07:49:47;20.10;72.10
21540;DHT22;10931;52.164;5.518;2022-10-26T07:52:14;20.10;72.10
21540;DHT22;10931;52.164;5.518;2022-10-26T07:54:40;20.10;72.10
21540;DHT22;10931;52.164;5.518;2022-10-26T07:57:08;20.10;72.10
21540;DHT22;10931;52.164;5.518;2022-10-26T07:59:36;20.10;72.10
21540;DHT22;10931;52.164;5.518;2022-10-26T08:02:08;20.10;72.10
21540;DHT22;10931;52.164;5.518;2022-10-26T08:04:39;20.10;72.10
21540;DHT22;10931;52.164;5.518;2022-10-26T08:07:08;20.10;72.10
21540;DHT22;10931;52.164;5.518;2022-10-26T08:09:46;20.10;72.10
21540;DHT22;10931;52.164;5.518;2022-10-26T08:12:25;20.10;72.10
21540;DHT22;10931;52.164;5.518;2022-10-26T08:15:09;20.10;72.10
21540;DHT22;10931;52.164;5.518;2022-10-26T08:17:41;20.10;72.10
21540;DHT22;10931;52.164;5.518;2022-10-26T08:28:31;20.00;72.00
21540;DHT22;10931;52.164;5.518;2022-10-26T08:34:35;20.00;72.00
21540;DHT22;10931;52.164;5.518;2022-10-26T08:37:09;20.00;72.00
21540;DHT22;10931;52.164;5.518;2022-10-26T08:39:37;20.00;72.00
21540;DHT22;10931;52.164;5.518;2022-10-26T08:42:17;20.00;72.00
21540;DHT22;10931;52.164;5.518;2022-10-26T08:45:07;20.00;72.00
21540;DHT22;10931;52.164;5.518;2022-10-26T08:47:59;20.00;72.00
21540;DHT22;10931;52.164;5.518;2022-10-26T09:03:32;20.00;72.10
21540;DHT22;10931;52.164;5.518;2022-10-26T09:09:07;20.00;72.10
21540;DHT22;10931;52.164;5.518;2022-10-26T09:20:36;20.00;72.10
21540;DHT22;10931;52.164;5.518;2022-10-26T09:26:18;20.00;72.10
21540;DHT22;10931;52.164;5.518;2022-10-26T09:28:55;20.00;72.10
21540;DHT22;10931;52.164;5.518;2022-10-26T09:31:25;20.00;72.10
21540;DHT22;10931;52.164;5.518;2022-10-26T09:33:53;20.00;72.10
21540;DHT22;10931;52.164;5.518;2022-10-26T09:36:29;20.00;72.10
21540;DHT22;10931;52.164;5.518;2022-10-26T09:39:35;20.00;72.10
21540;DHT22;10931;52.164;5.518;2022-10-26T09:45:50;20.00;72.10
21540;DHT22;10931;52.164;5.518;2022-10-26T09:48:05;20.00;72.10
21540;DHT22;10931;52.164;5.518;2022-10-26T09:50:39;20.00;72.10
21540;DHT22;10931;52.164;5.518;2022-10-26T09:53:09;20.00;72.10
21540;DHT22;10931;52.164;5.518;2022-10-26T09:56:06;20.00;72.10
21540;DHT22;10931;52.164;5.518;2022-10-26T09:58:47;20.00;72.10
21540;DHT22;10931;52.164;5.518;2022-10-26T10:01:29;20.00;72.10
21540;DHT22;10931;52.164;5.518;2022-10-26T10:06:49;20.00;72.10
21540;DHT22;10931;52.164;5.518;2022-10-26T10:12:23;20.00;72.10
21540;DHT22;10931;52.164;5.518;2022-10-26T10:15:02;20.00;72.10
21540;DHT22;10931;52.164;5.518;2022-10-26T10:18:07;20.00;72.10
21540;DHT22;10931;52.164;5.518;2022-10-26T10:20:50;20.00;72.10
21540;DHT22;10931;52.164;5.518;2022-10-26T10:25:58;20.00;72.10
21540;DHT22;10931;52.164;5.518;2022-10-26T10:28:40;20.00;72.10
21540;DHT22;10931;52.164;5.518;2022-10-26T10:31:31;20.00;72.10
21540;DHT22;10931;52.164;5.518;2022-10-26T10:37:31;20.10;72.10
21540;DHT22;10931;52.164;5.518;2022-10-26T10:40:13;20.00;72.10
21540;DHT22;10931;52.164;5.518;2022-10-26T10:42:41;20.10;72.10
21540;DHT22;10931;52.164;5.518;2022-10-26T10:45:45;20.10;72.20
21540;DHT22;10931;52.164;5.518;2022-10-26T10:48:21;20.10;72.10
21540;DHT22;10931;52.164;5.518;2022-10-26T10:51:01;20.10;72.10
21540;DHT22;10931;52.164;5.518;2022-10-26T10:58:56;20.10;72.10
21540;DHT22;10931;52.164;5.518;2022-10-26T11:01:30;20.10;72.10
21540;DHT22;10931;52.164;5.518;2022-10-26T11:04:22;20.10;72.10
21540;DHT22;10931;52.164;5.518;2022-10-26T11:06:50;20.10;72.10
21540;DHT22;10931;52.164;5.518;2022-10-26T11:09:26;20.10;72.20
21540;DHT22;10931;52.164;5.518;2022-10-26T11:11:56;20.10;72.20
21540;DHT22;10931;52.164;5.518;2022-10-26T11:14:34;20.20;72.20
21540;DHT22;10931;52.164;5.518;2022-10-26T11:17:29;20.20;72.20
21540;DHT22;10931;52.164;5.518;2022-10-26T11:20:27;20.20;72.20
21540;DHT22;10931;52.164;5.518;2022-10-26T11:42:29;20.20;72.30
21540;DHT22;10931;52.164;5.518;2022-10-26T11:45:34;20.20;72.30
21540;DHT22;10931;52.164;5.518;2022-10-26T11:48:23;20.20;72.40
21540;DHT22;10931;52.164;5.518;2022-10-26T11:50:56;20.20;72.50
21540;DHT22;10931;52.164;5.518;2022-10-26T11:53:30;20.20;72.50
21540;DHT22;10931;52.164;5.518;2022-10-26T11:56:02;20.20;72.60
21540;DHT22;10931;52.164;5.518;2022-10-26T11:58:30;20.20;72.70
21540;DHT22;10931;52.164;5.518;2022-10-26T12:07:54;20.30;73.10
21540;DHT22;10931;52.164;5.518;2022-10-26T12:10:30;20.30;73.20
21540;DHT22;10931;52.164;5.518;2022-10-26T12:17:12;20.40;73.40
21540;DHT22;10931;52.164;5.518;2022-10-26T12:36:00;20.70;74.00
21540;DHT22;10931;52.164;5.518;2022-10-26T12:38:59;20.70;74.10
21540;DHT22;10931;52.164;5.518;2022-10-26T13:32:47;21.60;74.70
21540;DHT22;10931;52.164;5.518;2022-10-26T13:38:47;21.60;74.60
21540;DHT22;10931;52.164;5.518;2022-10-26T13:41:20;21.70;74.60
21540;DHT22;10931;52.164;5.518;2022-10-26T13:44:18;21.70;74.60
21540;DHT22;10931;52.164;5.518;2022-10-26T13:47:27;21.70;74.60
21540;DHT22;10931;52.164;5.518;2022-10-26T13:50:10;21.70;74.50
21540;DHT22;10931;52.164;5.518;2022-10-26T13:52:43;21.70;74.40
21540;DHT22;10931;52.164;5.518;2022-10-26T13:55:36;21.80;74.50
21540;DHT22;10931;52.164;5.518;2022-10-26T14:01:49;21.80;74.40
21540;DHT22;10931;52.164;5.518;2022-10-26T14:04:43;21.80;74.40
21540;DHT22;10931;52.164;5.518;2022-10-26T14:26:37;21.90;74.20
21540;DHT22;10931;52.164;5.518;2022-10-26T14:29:17;21.90;74.20
21540;DHT22;10931;52.164;5.518;2022-10-26T14:31:45;21.90;74.20
21540;DHT22;10931;52.164;5.518;2022-10-26T14:34:15;21.90;74.20
21540;DHT22;10931;52.164;5.518;2022-10-26T14:39:40;21.90;74.20
21540;DHT22;10931;52.164;5.518;2022-10-26T14:42:39;22.00;74.20
21540;DHT22;10931;52.164;5.518;2022-10-26T14:55:19;22.00;74.20
21540;DHT22;10931;52.164;5.518;2022-10-26T14:58:31;22.00;74.10
21540;DHT22;10931;52.164;5.518;2022-10-26T15:03:58;22.00;74.10
21540;DHT22;10931;52.164;5.518;2022-10-26T15:06:32;22.00;74.10
21540;DHT22;10931;52.164;5.518;2022-10-26T15:09:02;22.10;74.20
21540;DHT22;10931;52.164;5.518;2022-10-26T15:11:32;22.00;74.10
21540;DHT22;10931;52.164;5.518;2022-10-26T15:13:58;22.00;74.10
21540;DHT22;10931;52.164;5.518;2022-10-26T15:16:26;22.00;74.10
21540;DHT22;10931;52.164;5.518;2022-10-26T15:18:55;22.10;74.20
21540;DHT22;10931;52.164;5.518;2022-10-26T15:21:45;22.10;74.10
21540;DHT22;10931;52.164;5.518;2022-10-26T15:24:34;22.10;74.10
21540;DHT22;10931;52.164;5.518;2022-10-26T15:27:18;22.10;74.10
21540;DHT22;10931;52.164;5.518;2022-10-26T15:29:48;22.10;74.10
21540;DHT22;10931;52.164;5.518;2022-10-26T15:32:26;22.10;74.10
21540;DHT22;10931;52.164;5.518;2022-10-26T15:35:20;22.10;74.10
21540;DHT22;10931;52.164;5.518;2022-10-26T15:37:52;22.10;74.10
21540;DHT22;10931;52.164;5.518;2022-10-26T15:40:21;22.10;74.10
21540;DHT22;10931;52.164;5.518;2022-10-26T15:42:51;22.10;74.10
21540;DHT22;10931;52.164;5.518;2022-10-26T15:45:35;22.10;74.10
21540;DHT22;10931;52.164;5.518;2022-10-26T15:51:19;22.10;74.10
21540;DHT22;10931;52.164;5.518;2022-10-26T15:53:48;22.10;74.10
21540;DHT22;10931;52.164;5.518;2022-10-26T15:56:19;22.10;74.10
21540;DHT22;10931;52.164;5.518;2022-10-26T15:58:49;22.10;74.10
21540;DHT22;10931;52.164;5.518;2022-10-26T16:01:20;22.20;74.20
21540;DHT22;10931;52.164;5.518;2022-10-26T16:03:49;22.20;74.20
21540;DHT22;10931;52.164;5.518;2022-10-26T16:06:29;22.20;74.20
21540;DHT22;10931;52.164;5.518;2022-10-26T16:08:58;22.20;75.00
21540;DHT22;10931;52.164;5.518;2022-10-26T16:11:27;22.20;74.10
21540;DHT22;10931;52.164;5.518;2022-10-26T16:13:53;22.20;74.10
21540;DHT22;10931;52.164;5.518;2022-10-26T16:16:26;22.20;74.10
21540;DHT22;10931;52.164;5.518;2022-10-26T16:19:00;22.20;74.10
21540;DHT22;10931;52.164;5.518;2022-10-26T16:21:28;22.20;74.10
21540;DHT22;10931;52.164;5.518;2022-10-26T16:23:58;22.20;74.10
21540;DHT22;10931;52.164;5.518;2022-10-26T16:26:27;22.20;74.00
21540;DHT22;10931;52.164;5.518;2022-10-26T16:28:52;22.20;73.90
21540;DHT22;10931;52.164;5.518;2022-10-26T16:31:19;22.20;73.90
21540;DHT22;10931;52.164;5.518;2022-10-26T16:33:47;22.20;74.00
21540;DHT22;10931;52.164;5.518;2022-10-26T16:36:12;22.20;73.90
21540;DHT22;10931;52.164;5.518;2022-10-26T16:38:38;22.20;73.90
21540;DHT22;10931;52.164;5.518;2022-10-26T16:41:07;22.20;73.90
21540;DHT22;10931;52.164;5.518;2022-10-26T16:43:43;22.20;73.90
21540;DHT22;10931;52.164;5.518;2022-10-26T16:46:19;22.20;73.90
21540;DHT22;10931;52.164;5.518;2022-10-26T16:48:47;22.20;73.90
21540;DHT22;10931;52.164;5.518;2022-10-26T16:51:21;22.20;73.90
21540;DHT22;10931;52.164;5.518;2022-10-26T16:53:55;22.20;73.80
21540;DHT22;10931;52.164;5.518;2022-10-26T16:56:30;22.20;73.90
21540;DHT22;10931;52.164;5.518;2022-10-26T16:59:03;22.20;73.90
21540;DHT22;10931;52.164;5.518;2022-10-26T17:01:32;22.20;73.90
21540;DHT22;10931;52.164;5.518;2022-10-26T17:04:08;22.20;73.90
21540;DHT22;10931;52.164;5.518;2022-10-26T17:06:36;22.20;73.90
21540;DHT22;10931;52.164;5.518;2022-10-26T17:09:10;22.20;73.90
21540;DHT22;10931;52.164;5.518;2022-10-26T17:11:38;22.20;73.90
21540;DHT22;10931;52.164;5.518;2022-10-26T17:14:04;22.20;73.90
21540;DHT22;10931;52.164;5.518;2022-10-26T17:16:47;22.20;74.00
21540;DHT22;10931;52.164;5.518;2022-10-26T17:21:58;22.20;74.10
21540;DHT22;10931;52.164;5.518;2022-10-26T17:24:29;22.20;74.20
21540;DHT22;10931;52.164;5.518;2022-10-26T17:27:17;22.30;74.30
21540;DHT22;10931;52.164;5.518;2022-10-26T17:29:53;22.30;74.40
21540;DHT22;10931;52.164;5.518;2022-10-26T17:32:33;22.30;74.40
21540;DHT22;10931;52.164;5.518;2022-10-26T17:35:01;22.30;74.40
21540;DHT22;10931;52.164;5.518;2022-10-26T17:38:16;22.30;74.40
21540;DHT22;10931;52.164;5.518;2022-10-26T17:41:06;22.30;74.40
21540;DHT22;10931;52.164;5.518;2022-10-26T17:46:40;22.30;74.40
21540;DHT22;10931;52.164;5.518;2022-10-26T17:49:28;22.30;74.50
21540;DHT22;10931;52.164;5.518;2022-10-26T17:51:53;22.30;74.60
21540;DHT22;10931;52.164;5.518;2022-10-26T17:54:27;22.30;74.60
21540;DHT22;10931;52.164;5.518;2022-10-26T17:56:55;22.30;74.70
21540;DHT22;10931;52.164;5.518;2022-10-26T17:59:23;22.30;74.80
21540;DHT22;10931;52.164;5.518;2022-10-26T18:02:02;22.30;74.90
21540;DHT22;10931;52.164;5.518;2022-10-26T18:04:49;22.40;74.90
21540;DHT22;10931;52.164;5.518;2022-10-26T18:07:20;22.40;75.00
21540;DHT22;10931;52.164;5.518;2022-10-26T18:10:07;22.40;75.10
21540;DHT22;10931;52.164;5.518;2022-10-26T18:12:44;22.40;75.10
21540;DHT22;10931;52.164;5.518;2022-10-26T18:15:10;22.40;75.10
21540;DHT22;10931;52.164;5.518;2022-10-26T18:17:53;22.40;75.20
21540;DHT22;10931;52.164;5.518;2022-10-26T18:20:29;22.40;75.20
21540;DHT22;10931;52.164;5.518;2022-10-26T18:22:55;22.50;75.20
21540;DHT22;10931;52.164;5.518;2022-10-26T18:25:24;22.50;75.30
21540;DHT22;10931;52.164;5.518;2022-10-26T18:27:53;22.50;75.40
21540;DHT22;10931;52.164;5.518;2022-10-26T18:30:22;22.50;75.40
21540;DHT22;10931;52.164;5.518;2022-10-26T18:32:51;22.50;75.50
21540;DHT22;10931;52.164;5.518;2022-10-26T18:35:26;22.50;75.50
21540;DHT22;10931;52.164;5.518;2022-10-26T18:41:13;22.50;75.60
21540;DHT22;10931;52.164;5.518;2022-10-26T18:43:53;22.50;75.60
21540;DHT22;10931;52.164;5.518;2022-10-26T18:46:27;22.50;75.50
21540;DHT22;10931;52.164;5.518;2022-10-26T18:49:07;22.50;75.50
21540;DHT22;10931;52.164;5.518;2022-10-26T18:52:02;22.60;75.50
21540;DHT22;10931;52.164;5.518;2022-10-26T18:54:36;22.50;75.40
21540;DHT22;10931;52.164;5.518;2022-10-26T18:57:30;22.60;75.50
21540;DHT22;10931;52.164;5.518;2022-10-26T19:00:15;22.50;75.30
21540;DHT22;10931;52.164;5.518;2022-10-26T19:02:59;22.60;75.30
21540;DHT22;10931;52.164;5.518;2022-10-26T19:11:38;22.50;75.20
21540;DHT22;10931;52.164;5.518;2022-10-26T19:14:10;22.50;75.20
21540;DHT22;10931;52.164;5.518;2022-10-26T19:19:56;22.50;75.20
21540;DHT22;10931;52.164;5.518;2022-10-26T19:23:06;22.50;75.20
21540;DHT22;10931;52.164;5.518;2022-10-26T19:26:02;22.50;75.20
21540;DHT22;10931;52.164;5.518;2022-10-26T19:31:45;22.50;75.10
21540;DHT22;10931;52.164;5.518;2022-10-26T19:34:21;22.50;75.00
21540;DHT22;10931;52.164;5.518;2022-10-26T19:37:37;22.50;75.00
21540;DHT22;10931;52.164;5.518;2022-10-26T19:41:01;22.50;75.00
21540;DHT22;10931;52.164;5.518;2022-10-26T19:43:39;22.50;75.00
21540;DHT22;10931;52.164;5.518;2022-10-26T19:46:18;22.50;75.00
21540;DHT22;10931;52.164;5.518;2022-10-26T19:48:59;22.50;75.00
21540;DHT22;10931;52.164;5.518;2022-10-26T19:52:02;22.50;74.90
21540;DHT22;10931;52.164;5.518;2022-10-26T19:54:50;22.50;74.90
21540;DHT22;10931;52.164;5.518;2022-10-26T19:57:36;22.40;74.90
21540;DHT22;10931;52.164;5.518;2022-10-26T20:00:17;22.50;74.90
21540;DHT22;10931;52.164;5.518;2022-10-26T20:09:25;22.40;74.80
21540;DHT22;10931;52.164;5.518;2022-10-26T20:12:06;22.40;74.80
21540;DHT22;10931;52.164;5.518;2022-10-26T20:14:41;22.40;74.80
21540;DHT22;10931;52.164;5.518;2022-10-26T20:17:33;22.40;74.70
21540;DHT22;10931;52.164;5.518;2022-10-26T20:20:06;22.40;74.70
21540;DHT22;10931;52.164;5.518;2022-10-26T20:22:58;22.40;74.70
21540;DHT22;10931;52.164;5.518;2022-10-26T20:25:37;22.40;74.70
21540;DHT22;10931;52.164;5.518;2022-10-26T20:28:26;22.40;74.70
21540;DHT22;10931;52.164;5.518;2022-10-26T20:30:52;22.30;74.70
21540;DHT22;10931;52.164;5.518;2022-10-26T20:34:12;22.40;74.70
21540;DHT22;10931;52.164;5.518;2022-10-26T20:37:01;22.40;74.60
21540;DHT22;10931;52.164;5.518;2022-10-26T20:42:24;22.30;74.60
21540;DHT22;10931;52.164;5.518;2022-10-26T20:45:24;22.30;74.60
21540;DHT22;10931;52.164;5.518;2022-10-26T20:48:15;22.30;74.60
21540;DHT22;10931;52.164;5.518;2022-10-26T20:51:11;22.30;74.60
21540;DHT22;10931;52.164;5.518;2022-10-26T20:54:18;22.30;74.60
21540;DHT22;10931;52.164;5.518;2022-10-26T20:57:33;22.30;74.60
21540;DHT22;10931;52.164;5.518;2022-10-26T21:03:01;22.30;74.50
21540;DHT22;10931;52.164;5.518;2022-10-26T21:05:50;22.30;74.60
21540;DHT22;10931;52.164;5.518;2022-10-26T21:13:51;22.20;74.40
21540;DHT22;10931;52.164;5.518;2022-10-26T21:19:54;22.20;74.40
21540;DHT22;10931;52.164;5.518;2022-10-26T21:22:40;22.20;74.40
21540;DHT22;10931;52.164;5.518;2022-10-26T21:25:15;22.20;74.40
21540;DHT22;10931;52.164;5.518;2022-10-26T21:28:06;22.20;74.40
21540;DHT22;10931;52.164;5.518;2022-10-26T21:30:49;22.20;74.40
21540;DHT22;10931;52.164;5.518;2022-10-26T21:33:44;22.20;74.40
21540;DHT22;10931;52.164;5.518;2022-10-26T21:36:24;22.20;74.40
21540;DHT22;10931;52.164;5.518;2022-10-26T21:38:52;22.20;74.40
21540;DHT22;10931;52.164;5.518;2022-10-26T21:41:21;22.20;74.40
21540;DHT22;10931;52.164;5.518;2022-10-26T21:44:06;22.20;74.40
21540;DHT22;10931;52.164;5.518;2022-10-26T21:46:58;22.20;74.40
21540;DHT22;10931;52.164;5.518;2022-10-26T21:49:54;22.10;74.30
21540;DHT22;10931;52.164;5.518;2022-10-26T21:53:12;22.10;74.20
21540;DHT22;10931;52.164;5.518;2022-10-26T21:56:28;22.10;74.20
21540;DHT22;10931;52.164;5.518;2022-10-26T21:59:03;22.10;74.30
21540;DHT22;10931;52.164;5.518;2022-10-26T22:01:36;22.10;74.30
21540;DHT22;10931;52.164;5.518;2022-10-26T22:04:02;22.10;74.20
21540;DHT22;10931;52.164;5.518;2022-10-26T22:06:38;22.10;74.20